sensor_id;sensor_type;location;lat;lon;timestamp;temperature;humidity
19058;DHT22;9662;53.612;9.914;2022-09-09T00:01:52;17.80;99.90
19058;DHT22;9662;53.612;9.914;2022-09-09T00:04:26;17.90;99.90
19058;DHT22;9662;53.612;9.914;2022-09-09T00:07:01;17.90;99.90
19058;DHT22;9662;53.612;9.914;2022-09-09T00:09:32;18.00;99.90
19058;DHT22;9662;53.612;9.914;2022-09-09T00:12:10;17.90;99.90
19058;DHT22;9662;53.612;9.914;2022-09-09T00:14:42;17.70;99.90
19058;DHT22;9662;53.612;9.914;2022-09-09T00:17:17;17.90;99.90
19058;DHT22;9662;53.612;9.914;2022-09-09T00:19:49;18.00;99.90
19058;DHT22;9662;53.612;9.914;2022-09-09T00:22:20;18.00;99.90
19058;DHT22;9662;53.612;9.914;2022-09-09T00:24:51;18.10;99.90
19058;DHT22;9662;53.612;9.914;2022-09-09T00:27:28;18.00;99.90
19058;DHT22;9662;53.612;9.914;2022-09-09T00:30:00;18.10;99.90
19058;DHT22;9662;53.612;9.914;2022-09-09T00:32:30;17.90;99.90
19058;DHT22;9662;53.612;9.914;2022-09-09T00:35:02;17.80;99.90
19058;DHT22;9662;53.612;9.914;2022-09-09T00:37:29;17.80;99.90
19058;DHT22;9662;53.612;9.914;2022-09-09T00:39:59;18.00;99.90
19058;DHT22;9662;53.612;9.914;2022-09-09T00:42:34;18.10;99.90
19058;DHT22;9662;53.612;9.914;2022-09-09T00:45:17;17.90;99.90
19058;DHT22;9662;53.612;9.914;2022-09-09T00:47:48;18.00;99.90
19058;DHT22;9662;53.612;9.914;2022-09-09T00:50:30;17.90;99.90
19058;DHT22;9662;53.612;9.914;2022-09-09T00:53:09;18.00;99.90
19058;DHT22;9662;53.612;9.914;2022-09-09T00:55:46;18.10;99.90
19058;DHT22;9662;53.612;9.914;2022-09-09T00:58:14;18.10;99.90
19058;DHT22;9662;53.612;9.914;2022-09-09T01:00:44;18.10;99.90
19058;DHT22;9662;53.612;9.914;2022-09-09T01:03:22;18.10;99.90
19058;DHT22;9662;53.612;9.914;2022-09-09T01:05:59;18.10;99.90
19058;DHT22;9662;53.612;9.914;2022-09-09T01:08:48;17.90;99.90
19058;DHT22;9662;53.612;9.914;2022-09-09T01:11:22;18.00;99.90
19058;DHT22;9662;53.612;9.914;2022-09-09T01:13:56;18.00;99.90
19058;DHT22;9662;53.612;9.914;2022-09-09T01:16:26;18.00;99.90
19058;DHT22;9662;53.612;9.914;2022-09-09T01:18:56;18.00;99.90
19058;DHT22;9662;53.612;9.914;2022-09-09T01:21:33;17.90;99.90
19058;DHT22;9662;53.612;9.914;2022-09-09T01:24:16;17.90;99.90
19058;DHT22;9662;53.612;9.914;2022-09-09T01:26:47;17.60;99.90
19058;DHT22;9662;53.612;9.914;2022-09-09T01:29:18;17.70;99.90
19058;DHT22;9662;53.612;9.914;2022-09-09T01:31:53;17.70;99.90
19058;DHT22;9662;53.612;9.914;2022-09-09T01:34:22;17.60;99.90
19058;DHT22;9662;53.612;9.914;2022-09-09T01:36:53;17.50;99.90
19058;DHT22;9662;53.612;9.914;2022-09-09T01:39:22;17.50;99.90
19058;DHT22;9662;53.612;9.914;2022-09-09T01:41:51;17.50;99.90
19058;DHT22;9662;53.612;9.914;2022-09-09T01:44:19;17.60;99.90
19058;DHT22;9662;53.612;9.914;2022-09-09T01:46:46;17.60;99.90
19058;DHT22;9662;53.612;9.914;2022-09-09T01:49:13;17.50;99.90
19058;DHT22;9662;53.612;9.914;2022-09-09T01:51:40;17.50;99.90
19058;DHT22;9662;53.612;9.914;2022-09-09T01:54:08;17.50;99.90
19058;DHT22;9662;53.612;9.914;2022-09-09T01:56:42;17.30;99.90
19058;DHT22;9662;53.612;9.914;2022-09-09T01:59:34;17.30;99.90
19058;DHT22;9662;53.612;9.914;2022-09-09T02:02:09;17.30;99.90
19058;DHT22;9662;53.612;9.914;2022-09-09T02:04:39;17.30;99.90
19058;DHT22;9662;53.612;9.914;2022-09-09T02:07:21;17.20;99.90
19058;DHT22;9662;53.612;9.914;2022-09-09T02:09:59;17.20;99.90
19058;DHT22;9662;53.612;9.914;2022-09-09T02:12:28;17.20;99.90
19058;DHT22;9662;53.612;9.914;2022-09-09T02:15:02;17.20;99.90
19058;DHT22;9662;53.612;9.914;2022-09-09T02:17:33;17.10;99.90
19058;DHT22;9662;53.612;9.914;2022-09-09T02:20:06;16.90;99.90
19058;DHT22;9662;53.612;9.914;2022-09-09T02:22:35;17.00;99.90
19058;DHT22;9662;53.612;9.914;2022-09-09T02:25:07;17.10;99.90
19058;DHT22;9662;53.612;9.914;2022-09-09T02:27:35;17.20;99.90
19058;DHT22;9662;53.612;9.914;2022-09-09T02:30:04;17.20;99.90
19058;DHT22;9662;53.612;9.914;2022-09-09T02:32:32;17.20;99.90
19058;DHT22;9662;53.612;9.914;2022-09-09T02:35:04;17.20;99.90
19058;DHT22;9662;53.612;9.914;2022-09-09T02:37:35;17.20;99.90
19058;DHT22;9662;53.612;9.914;2022-09-09T02:40:03;17.20;99.90
19058;DHT22;9662;53.612;9.914;2022-09-09T02:42:31;17.20;99.90
19058;DHT22;9662;53.612;9.914;2022-09-09T02:44:58;17.20;99.90
19058;DHT22;9662;53.612;9.914;2022-09-09T02:47:30;17.20;99.90
19058;DHT22;9662;53.612;9.914;2022-09-09T02:50:07;17.10;99.90
19058;DHT22;9662;53.612;9.914;2022-09-09T02:52:44;17.10;99.90
19058;DHT22;9662;53.612;9.914;2022-09-09T02:55:20;17.00;99.90
19058;DHT22;9662;53.612;9.914;2022-09-09T02:57:51;17.00;99.90
19058;DHT22;9662;53.612;9.914;2022-09-09T03:00:23;17.00;99.90
19058;DHT22;9662;53.612;9.914;2022-09-09T03:02:52;17.00;99.90
19058;DHT22;9662;53.612;9.914;2022-09-09T03:05:19;17.00;99.90
19058;DHT22;9662;53.612;9.914;2022-09-09T03:07:46;17.00;99.90
19058;DHT22;9662;53.612;9.914;2022-09-09T03:10:13;17.10;99.90
19058;DHT22;9662;53.612;9.914;2022-09-09T03:12:40;17.10;99.90
19058;DHT22;9662;53.612;9.914;2022-09-09T03:15:08;17.00;99.90
19058;DHT22;9662;53.612;9.914;2022-09-09T03:17:35;17.00;99.90
19058;DHT22;9662;53.612;9.914;2022-09-09T03:20:03;17.00;99.90
19058;DHT22;9662;53.612;9.914;2022-09-09T03:22:30;16.80;99.90
19058;DHT22;9662;53.612;9.914;2022-09-09T03:24:57;16.80;99.90
19058;DHT22;9662;53.612;9.914;2022-09-09T03:27:24;16.80;99.90
19058;DHT22;9662;53.612;9.914;2022-09-09T03:29:51;16.80;99.90
19058;DHT22;9662;53.612;9.914;2022-09-09T03:32:18;16.70;99.90
19058;DHT22;9662;53.612;9.914;2022-09-09T03:34:47;16.70;99.90
19058;DHT22;9662;53.612;9.914;2022-09-09T03:37:16;16.70;99.90
19058;DHT22;9662;53.612;9.914;2022-09-09T03:39:43;16.60;99.90
19058;DHT22;9662;53.612;9.914;2022-09-09T03:42:12;16.60;99.90
19058;DHT22;9662;53.612;9.914;2022-09-09T03:44:39;16.50;99.90
19058;DHT22;9662;53.612;9.914;2022-09-09T03:47:07;16.60;99.90
19058;DHT22;9662;53.612;9.914;2022-09-09T03:49:34;16.60;99.90
19058;DHT22;9662;53.612;9.914;2022-09-09T03:52:00;16.60;99.90
19058;DHT22;9662;53.612;9.914;2022-09-09T03:54:28;16.60;99.90
19058;DHT22;9662;53.612;9.914;2022-09-09T03:56:55;16.50;99.90
19058;DHT22;9662;53.612;9.914;2022-09-09T03:59:23;16.50;99.90
19058;DHT22;9662;53.612;9.914;2022-09-09T04:01:50;16.50;99.90
19058;DHT22;9662;53.612;9.914;2022-09-09T04:04:17;16.50;99.90
19058;DHT22;9662;53.612;9.914;2022-09-09T04:06:45;16.40;99.90
19058;DHT22;9662;53.612;9.914;2022-09-09T04:09:13;16.40;99.90
19058;DHT22;9662;53.612;9.914;2022-09-09T04:11:41;16.30;99.90
19058;DHT22;9662;53.612;9.914;2022-09-09T04:14:08;16.30;99.90
19058;DHT22;9662;53.612;9.914;2022-09-09T04:16:35;16.30;99.90
19058;DHT22;9662;53.612;9.914;2022-09-09T04:19:02;16.30;99.90
19058;DHT22;9662;53.612;9.914;2022-09-09T04:21:29;16.30;99.90
19058;DHT22;9662;53.612;9.914;2022-09-09T04:23:56;16.30;99.90
19058;DHT22;9662;53.612;9.914;2022-09-09T04:26:23;16.10;99.90
19058;DHT22;9662;53.612;9.914;2022-09-09T04:28:51;16.10;99.90
19058;DHT22;9662;53.612;9.914;2022-09-09T04:31:19;16.20;99.90
19058;DHT22;9662;53.612;9.914;2022-09-09T04:33:48;16.10;99.90
19058;DHT22;9662;53.612;9.914;2022-09-09T04:36:14;16.10;99.90
19058;DHT22;9662;53.612;9.914;2022-09-09T04:38:41;16.10;99.90
19058;DHT22;9662;53.612;9.914;2022-09-09T04:41:10;16.20;99.90
19058;DHT22;9662;53.612;9.914;2022-09-09T04:43:37;16.20;99.90
19058;DHT22;9662;53.612;9.914;2022-09-09T04:46:05;16.20;99.90
19058;DHT22;9662;53.612;9.914;2022-09-09T04:48:32;16.20;99.90
19058;DHT22;9662;53.612;9.914;2022-09-09T04:51:01;16.20;99.90
19058;DHT22;9662;53.612;9.914;2022-09-09T04:53:28;16.10;99.90
19058;DHT22;9662;53.612;9.914;2022-09-09T04:56:02;16.20;99.90
19058;DHT22;9662;53.612;9.914;2022-09-09T04:58:29;16.40;99.90
19058;DHT22;9662;53.612;9.914;2022-09-09T05:01:05;16.40;99.90
19058;DHT22;9662;53.612;9.914;2022-09-09T05:03:32;16.60;99.90
19058;DHT22;9662;53.612;9.914;2022-09-09T05:06:06;16.50;99.90
19058;DHT22;9662;53.612;9.914;2022-09-09T05:08:34;16.50;99.90
19058;DHT22;9662;53.612;9.914;2022-09-09T05:11:00;16.60;99.90
19058;DHT22;9662;53.612;9.914;2022-09-09T05:13:28;16.60;99.90
19058;DHT22;9662;53.612;9.914;2022-09-09T05:15:57;16.70;99.90
19058;DHT22;9662;53.612;9.914;2022-09-09T05:18:25;16.70;99.90
19058;DHT22;9662;53.612;9.914;2022-09-09T05:20:52;16.70;99.90
19058;DHT22;9662;53.612;9.914;2022-09-09T05:23:19;16.70;99.90
19058;DHT22;9662;53.612;9.914;2022-09-09T05:25:55;16.50;99.90
19058;DHT22;9662;53.612;9.914;2022-09-09T05:28:23;16.50;99.90
19058;DHT22;9662;53.612;9.914;2022-09-09T05:30:55;16.50;99.90
19058;DHT22;9662;53.612;9.914;2022-09-09T05:33:22;16.60;99.90
19058;DHT22;9662;53.612;9.914;2022-09-09T05:35:56;16.60;99.90
19058;DHT22;9662;53.612;9.914;2022-09-09T05:38:23;16.70;99.90
19058;DHT22;9662;53.612;9.914;2022-09-09T05:40:50;16.70;99.90
19058;DHT22;9662;53.612;9.914;2022-09-09T05:43:17;16.80;99.90
19058;DHT22;9662;53.612;9.914;2022-09-09T05:45:45;16.90;99.90
19058;DHT22;9662;53.612;9.914;2022-09-09T05:48:13;16.90;99.90
19058;DHT22;9662;53.612;9.914;2022-09-09T05:50:40;16.90;99.90
19058;DHT22;9662;53.612;9.914;2022-09-09T05:53:08;17.00;99.90
19058;DHT22;9662;53.612;9.914;2022-09-09T05:55:35;17.00;99.90
19058;DHT22;9662;53.612;9.914;2022-09-09T05:58:02;17.00;99.90
19058;DHT22;9662;53.612;9.914;2022-09-09T06:00:29;17.10;99.90
19058;DHT22;9662;53.612;9.914;2022-09-09T06:02:57;17.20;99.90
19058;DHT22;9662;53.612;9.914;2022-09-09T06:05:23;17.30;99.90
19058;DHT22;9662;53.612;9.914;2022-09-09T06:07:53;17.40;99.90
19058;DHT22;9662;53.612;9.914;2022-09-09T06:10:21;17.50;99.90
19058;DHT22;9662;53.612;9.914;2022-09-09T06:12:48;17.80;99.90
19058;DHT22;9662;53.612;9.914;2022-09-09T06:15:15;17.90;99.90
19058;DHT22;9662;53.612;9.914;2022-09-09T06:17:42;18.10;99.90
19058;DHT22;9662;53.612;9.914;2022-09-09T06:20:10;18.20;99.90
19058;DHT22;9662;53.612;9.914;2022-09-09T06:22:39;18.20;99.90
19058;DHT22;9662;53.612;9.914;2022-09-09T06:25:08;18.30;99.90
19058;DHT22;9662;53.612;9.914;2022-09-09T06:27:36;18.30;99.90
19058;DHT22;9662;53.612;9.914;2022-09-09T06:30:03;18.40;99.90
19058;DHT22;9662;53.612;9.914;2022-09-09T06:32:30;18.30;99.90
19058;DHT22;9662;53.612;9.914;2022-09-09T06:34:58;18.30;99.90
19058;DHT22;9662;53.612;9.914;2022-09-09T06:37:26;18.10;99.90
19058;DHT22;9662;53.612;9.914;2022-09-09T06:39:53;18.10;99.90
19058;DHT22;9662;53.612;9.914;2022-09-09T06:42:20;18.10;99.90
19058;DHT22;9662;53.612;9.914;2022-09-09T06:44:48;18.20;99.90
19058;DHT22;9662;53.612;9.914;2022-09-09T06:47:15;18.30;99.90
19058;DHT22;9662;53.612;9.914;2022-09-09T06:49:42;18.40;99.90
19058;DHT22;9662;53.612;9.914;2022-09-09T06:52:09;18.30;99.90
19058;DHT22;9662;53.612;9.914;2022-09-09T06:54:35;18.50;99.90
19058;DHT22;9662;53.612;9.914;2022-09-09T06:57:02;18.70;99.90
19058;DHT22;9662;53.612;9.914;2022-09-09T06:59:32;18.90;99.90
19058;DHT22;9662;53.612;9.914;2022-09-09T07:02:00;19.00;99.90
19058;DHT22;9662;53.612;9.914;2022-09-09T07:04:27;19.10;99.90
19058;DHT22;9662;53.612;9.914;2022-09-09T07:06:53;19.10;99.90
19058;DHT22;9662;53.612;9.914;2022-09-09T07:09:20;19.30;99.90
19058;DHT22;9662;53.612;9.914;2022-09-09T07:11:48;19.30;99.90
19058;DHT22;9662;53.612;9.914;2022-09-09T07:14:16;19.10;99.90
19058;DHT22;9662;53.612;9.914;2022-09-09T07:16:44;19.30;99.90
19058;DHT22;9662;53.612;9.914;2022-09-09T07:19:13;19.10;99.90
19058;DHT22;9662;53.612;9.914;2022-09-09T07:21:41;19.40;99.90
19058;DHT22;9662;53.612;9.914;2022-09-09T07:24:08;19.60;99.90
19058;DHT22;9662;53.612;9.914;2022-09-09T07:26:36;19.70;99.90
19058;DHT22;9662;53.612;9.914;2022-09-09T07:29:04;19.80;99.90
19058;DHT22;9662;53.612;9.914;2022-09-09T07:31:32;19.90;99.90
19058;DHT22;9662;53.612;9.914;2022-09-09T07:33:59;19.90;99.90
19058;DHT22;9662;53.612;9.914;2022-09-09T07:36:30;20.00;99.90
19058;DHT22;9662;53.612;9.914;2022-09-09T07:38:59;19.70;99.90
19058;DHT22;9662;53.612;9.914;2022-09-09T07:41:28;19.80;99.90
19058;DHT22;9662;53.612;9.914;2022-09-09T07:43:56;19.90;99.90
19058;DHT22;9662;53.612;9.914;2022-09-09T07:46:26;19.90;99.90
19058;DHT22;9662;53.612;9.914;2022-09-09T07:48:54;19.90;99.90
19058;DHT22;9662;53.612;9.914;2022-09-09T07:51:23;19.90;99.90
19058;DHT22;9662;53.612;9.914;2022-09-09T07:53:54;20.00;99.90
19058;DHT22;9662;53.612;9.914;2022-09-09T07:56:23;20.10;99.90
19058;DHT22;9662;53.612;9.914;2022-09-09T07:58:51;20.20;99.90
19058;DHT22;9662;53.612;9.914;2022-09-09T08:01:21;20.00;99.90
19058;DHT22;9662;53.612;9.914;2022-09-09T08:03:53;20.10;99.90
19058;DHT22;9662;53.612;9.914;2022-09-09T08:06:20;20.10;99.90
19058;DHT22;9662;53.612;9.914;2022-09-09T08:08:50;20.10;99.90
19058;DHT22;9662;53.612;9.914;2022-09-09T08:11:18;19.70;99.90
19058;DHT22;9662;53.612;9.914;2022-09-09T08:13:45;19.80;99.90
19058;DHT22;9662;53.612;9.914;2022-09-09T08:16:15;19.90;99.90
19058;DHT22;9662;53.612;9.914;2022-09-09T08:18:42;20.00;99.90
19058;DHT22;9662;53.612;9.914;2022-09-09T08:21:11;20.10;99.90
19058;DHT22;9662;53.612;9.914;2022-09-09T08:23:39;20.30;99.90
19058;DHT22;9662;53.612;9.914;2022-09-09T08:26:08;20.40;99.90
19058;DHT22;9662;53.612;9.914;2022-09-09T08:28:37;20.30;99.90
19058;DHT22;9662;53.612;9.914;2022-09-09T08:31:06;20.20;99.90
19058;DHT22;9662;53.612;9.914;2022-09-09T08:33:33;20.10;99.90
19058;DHT22;9662;53.612;9.914;2022-09-09T08:36:01;20.10;99.90
19058;DHT22;9662;53.612;9.914;2022-09-09T08:38:28;20.20;99.90
19058;DHT22;9662;53.612;9.914;2022-09-09T08:41:02;20.10;99.90
19058;DHT22;9662;53.612;9.914;2022-09-09T08:43:31;19.70;99.90
19058;DHT22;9662;53.612;9.914;2022-09-09T08:46:03;20.00;99.90
19058;DHT22;9662;53.612;9.914;2022-09-09T08:48:46;20.30;99.90
19058;DHT22;9662;53.612;9.914;2022-09-09T08:51:15;20.60;99.90
19058;DHT22;9662;53.612;9.914;2022-09-09T08:53:45;20.70;99.90
19058;DHT22;9662;53.612;9.914;2022-09-09T08:56:14;20.90;99.90
19058;DHT22;9662;53.612;9.914;2022-09-09T08:58:46;21.10;99.90
19058;DHT22;9662;53.612;9.914;2022-09-09T09:01:40;21.00;99.90
19058;DHT22;9662;53.612;9.914;2022-09-09T09:04:17;21.20;99.90
19058;DHT22;9662;53.612;9.914;2022-09-09T09:06:53;21.30;99.90
19058;DHT22;9662;53.612;9.914;2022-09-09T09:09:25;21.40;99.90
19058;DHT22;9662;53.612;9.914;2022-09-09T09:11:57;21.40;99.90
19058;DHT22;9662;53.612;9.914;2022-09-09T09:14:27;21.60;99.90
19058;DHT22;9662;53.612;9.914;2022-09-09T09:16:59;21.80;99.90
19058;DHT22;9662;53.612;9.914;2022-09-09T09:19:27;21.80;99.90
19058;DHT22;9662;53.612;9.914;2022-09-09T09:22:00;22.00;99.90
19058;DHT22;9662;53.612;9.914;2022-09-09T09:24:34;22.10;99.90
19058;DHT22;9662;53.612;9.914;2022-09-09T09:27:11;22.10;99.90
19058;DHT22;9662;53.612;9.914;2022-09-09T09:29:39;22.10;99.90
19058;DHT22;9662;53.612;9.914;2022-09-09T09:32:11;22.20;99.90
19058;DHT22;9662;53.612;9.914;2022-09-09T09:34:40;22.20;99.90
19058;DHT22;9662;53.612;9.914;2022-09-09T09:37:15;22.20;99.90
19058;DHT22;9662;53.612;9.914;2022-09-09T09:39:45;22.40;99.90
19058;DHT22;9662;53.612;9.914;2022-09-09T09:42:15;22.50;99.90
19058;DHT22;9662;53.612;9.914;2022-09-09T09:44:43;22.60;99.90
19058;DHT22;9662;53.612;9.914;2022-09-09T09:47:13;22.70;99.90
19058;DHT22;9662;53.612;9.914;2022-09-09T09:49:51;22.50;99.90
19058;DHT22;9662;53.612;9.914;2022-09-09T09:52:21;22.50;99.90
19058;DHT22;9662;53.612;9.914;2022-09-09T09:54:49;22.50;99.90
19058;DHT22;9662;53.612;9.914;2022-09-09T09:57:16;22.50;99.90
19058;DHT22;9662;53.612;9.914;2022-09-09T09:59:45;22.40;99.90
19058;DHT22;9662;53.612;9.914;2022-09-09T10:02:17;22.50;99.90
19058;DHT22;9662;53.612;9.914;2022-09-09T10:04:45;22.10;99.90
19058;DHT22;9662;53.612;9.914;2022-09-09T10:07:12;22.10;99.90
19058;DHT22;9662;53.612;9.914;2022-09-09T10:09:40;21.90;99.90
19058;DHT22;9662;53.612;9.914;2022-09-09T10:12:17;21.40;99.90
19058;DHT22;9662;53.612;9.914;2022-09-09T10:14:55;21.30;99.90
19058;DHT22;9662;53.612;9.914;2022-09-09T10:17:32;21.40;99.90
19058;DHT22;9662;53.612;9.914;2022-09-09T10:20:14;21.40;99.90
19058;DHT22;9662;53.612;9.914;2022-09-09T10:22:49;21.40;99.90
19058;DHT22;9662;53.612;9.914;2022-09-09T10:25:32;21.30;99.90
19058;DHT22;9662;53.612;9.914;2022-09-09T10:28:30;21.30;99.90
19058;DHT22;9662;53.612;9.914;2022-09-09T10:31:09;21.40;99.90
19058;DHT22;9662;53.612;9.914;2022-09-09T10:33:47;21.30;99.90
19058;DHT22;9662;53.612;9.914;2022-09-09T10:36:19;21.30;99.90
19058;DHT22;9662;53.612;9.914;2022-09-09T10:38:48;21.20;99.90
19058;DHT22;9662;53.612;9.914;2022-09-09T10:41:19;21.00;99.90
19058;DHT22;9662;53.612;9.914;2022-09-09T10:44:10;21.10;99.90
19058;DHT22;9662;53.612;9.914;2022-09-09T10:46:46;20.80;99.90
19058;DHT22;9662;53.612;9.914;2022-09-09T10:49:26;20.70;99.90
19058;DHT22;9662;53.612;9.914;2022-09-09T10:52:01;20.70;99.90
19058;DHT22;9662;53.612;9.914;2022-09-09T10:54:43;20.80;99.90
19058;DHT22;9662;53.612;9.914;2022-09-09T10:57:24;20.80;99.90
19058;DHT22;9662;53.612;9.914;2022-09-09T10:59:55;20.70;99.90
19058;DHT22;9662;53.612;9.914;2022-09-09T11:02:27;20.80;99.90
19058;DHT22;9662;53.612;9.914;2022-09-09T11:05:00;21.20;99.90
19058;DHT22;9662;53.612;9.914;2022-09-09T11:07:33;21.60;99.90
19058;DHT22;9662;53.612;9.914;2022-09-09T11:10:06;21.70;99.90
19058;DHT22;9662;53.612;9.914;2022-09-09T11:12:36;21.80;99.90
19058;DHT22;9662;53.612;9.914;2022-09-09T11:15:06;21.90;99.90
19058;DHT22;9662;53.612;9.914;2022-09-09T11:17:40;22.00;99.90
19058;DHT22;9662;53.612;9.914;2022-09-09T11:20:13;21.90;99.90
19058;DHT22;9662;53.612;9.914;2022-09-09T11:22:45;21.80;99.90
19058;DHT22;9662;53.612;9.914;2022-09-09T11:25:16;22.00;99.90
19058;DHT22;9662;53.612;9.914;2022-09-09T11:27:57;22.10;99.90
19058;DHT22;9662;53.612;9.914;2022-09-09T11:30:36;22.10;99.90
19058;DHT22;9662;53.612;9.914;2022-09-09T11:33:29;21.90;99.90
19058;DHT22;9662;53.612;9.914;2022-09-09T11:36:10;22.20;99.90
19058;DHT22;9662;53.612;9.914;2022-09-09T11:38:45;22.30;99.90
19058;DHT22;9662;53.612;9.914;2022-09-09T11:41:13;22.40;99.90
19058;DHT22;9662;53.612;9.914;2022-09-09T11:43:43;22.60;99.90
19058;DHT22;9662;53.612;9.914;2022-09-09T11:46:11;22.60;99.90
19058;DHT22;9662;53.612;9.914;2022-09-09T11:48:40;22.60;99.90
19058;DHT22;9662;53.612;9.914;2022-09-09T11:51:11;23.00;99.90
19058;DHT22;9662;53.612;9.914;2022-09-09T11:53:48;23.20;99.90
19058;DHT22;9662;53.612;9.914;2022-09-09T11:56:25;23.30;99.90
19058;DHT22;9662;53.612;9.914;2022-09-09T11:58:58;23.60;99.90
19058;DHT22;9662;53.612;9.914;2022-09-09T12:01:37;23.60;99.90
19058;DHT22;9662;53.612;9.914;2022-09-09T12:04:17;23.60;99.90
19058;DHT22;9662;53.612;9.914;2022-09-09T12:06:50;23.70;99.90
19058;DHT22;9662;53.612;9.914;2022-09-09T12:09:22;23.50;99.90
19058;DHT22;9662;53.612;9.914;2022-09-09T12:11:50;23.50;99.90
19058;DHT22;9662;53.612;9.914;2022-09-09T12:14:22;23.40;99.90
19058;DHT22;9662;53.612;9.914;2022-09-09T12:16:49;23.40;99.90
19058;DHT22;9662;53.612;9.914;2022-09-09T12:19:20;23.30;99.90
19058;DHT22;9662;53.612;9.914;2022-09-09T12:21:54;23.20;99.90
19058;DHT22;9662;53.612;9.914;2022-09-09T12:24:29;22.90;99.90
19058;DHT22;9662;53.612;9.914;2022-09-09T12:27:03;22.90;99.90
19058;DHT22;9662;53.612;9.914;2022-09-09T12:29:38;22.90;99.90
19058;DHT22;9662;53.612;9.914;2022-09-09T12:32:10;22.80;99.90
19058;DHT22;9662;53.612;9.914;2022-09-09T12:34:39;22.80;99.90
19058;DHT22;9662;53.612;9.914;2022-09-09T12:37:26;22.70;99.90
19058;DHT22;9662;53.612;9.914;2022-09-09T12:39:55;22.70;99.90
19058;DHT22;9662;53.612;9.914;2022-09-09T12:42:23;22.70;99.90
19058;DHT22;9662;53.612;9.914;2022-09-09T12:44:52;22.60;99.90
19058;DHT22;9662;53.612;9.914;2022-09-09T12:47:20;22.80;99.90
19058;DHT22;9662;53.612;9.914;2022-09-09T12:49:48;22.90;99.90
19058;DHT22;9662;53.612;9.914;2022-09-09T12:52:20;23.20;99.90
19058;DHT22;9662;53.612;9.914;2022-09-09T12:54:49;23.20;99.90
19058;DHT22;9662;53.612;9.914;2022-09-09T12:57:19;23.30;99.90
19058;DHT22;9662;53.612;9.914;2022-09-09T12:59:46;23.30;99.90
19058;DHT22;9662;53.612;9.914;2022-09-09T13:02:19;23.40;99.90
19058;DHT22;9662;53.612;9.914;2022-09-09T13:04:47;23.30;99.90
19058;DHT22;9662;53.612;9.914;2022-09-09T13:07:16;23.20;99.90
19058;DHT22;9662;53.612;9.914;2022-09-09T13:09:43;22.50;99.90
19058;DHT22;9662;53.612;9.914;2022-09-09T13:12:14;22.20;99.90
19058;DHT22;9662;53.612;9.914;2022-09-09T13:14:44;21.90;99.90
19058;DHT22;9662;53.612;9.914;2022-09-09T13:17:19;22.00;99.90
19058;DHT22;9662;53.612;9.914;2022-09-09T13:19:46;21.80;99.90
19058;DHT22;9662;53.612;9.914;2022-09-09T13:22:21;21.30;99.90
19058;DHT22;9662;53.612;9.914;2022-09-09T13:24:59;21.10;99.90
19058;DHT22;9662;53.612;9.914;2022-09-09T13:27:31;21.10;99.90
19058;DHT22;9662;53.612;9.914;2022-09-09T13:29:59;21.00;99.90
19058;DHT22;9662;53.612;9.914;2022-09-09T13:32:29;21.00;99.90
19058;DHT22;9662;53.612;9.914;2022-09-09T13:34:58;20.60;99.90
19058;DHT22;9662;53.612;9.914;2022-09-09T13:37:30;19.90;99.90
19058;DHT22;9662;53.612;9.914;2022-09-09T13:39:57;20.10;99.90
19058;DHT22;9662;53.612;9.914;2022-09-09T13:42:26;19.70;99.90
19058;DHT22;9662;53.612;9.914;2022-09-09T13:44:55;19.60;99.90
19058;DHT22;9662;53.612;9.914;2022-09-09T13:47:28;19.60;99.90
19058;DHT22;9662;53.612;9.914;2022-09-09T13:49:56;19.20;99.90
19058;DHT22;9662;53.612;9.914;2022-09-09T13:52:23;19.30;99.90
19058;DHT22;9662;53.612;9.914;2022-09-09T13:54:52;19.40;99.90
19058;DHT22;9662;53.612;9.914;2022-09-09T13:57:21;19.20;99.90
19058;DHT22;9662;53.612;9.914;2022-09-09T13:59:48;19.50;99.90
19058;DHT22;9662;53.612;9.914;2022-09-09T14:02:16;19.40;99.90
19058;DHT22;9662;53.612;9.914;2022-09-09T14:04:43;19.50;99.90
19058;DHT22;9662;53.612;9.914;2022-09-09T14:07:12;19.70;99.90
19058;DHT22;9662;53.612;9.914;2022-09-09T14:09:39;19.60;99.90
19058;DHT22;9662;53.612;9.914;2022-09-09T14:12:08;19.20;99.90
19058;DHT22;9662;53.612;9.914;2022-09-09T14:14:36;18.90;99.90
19058;DHT22;9662;53.612;9.914;2022-09-09T14:17:02;19.20;99.90
19058;DHT22;9662;53.612;9.914;2022-09-09T14:19:31;19.40;99.90
19058;DHT22;9662;53.612;9.914;2022-09-09T14:21:58;19.60;99.90
19058;DHT22;9662;53.612;9.914;2022-09-09T14:24:24;19.70;99.90
19058;DHT22;9662;53.612;9.914;2022-09-09T14:26:51;19.80;99.90
19058;DHT22;9662;53.612;9.914;2022-09-09T14:29:18;19.90;99.90
19058;DHT22;9662;53.612;9.914;2022-09-09T14:31:45;20.10;99.90
19058;DHT22;9662;53.612;9.914;2022-09-09T14:34:11;20.20;99.90
19058;DHT22;9662;53.612;9.914;2022-09-09T14:36:41;20.20;99.90
19058;DHT22;9662;53.612;9.914;2022-09-09T14:39:07;20.10;99.90
19058;DHT22;9662;53.612;9.914;2022-09-09T14:41:34;20.10;99.90
19058;DHT22;9662;53.612;9.914;2022-09-09T14:44:01;20.00;99.90
19058;DHT22;9662;53.612;9.914;2022-09-09T14:46:28;19.80;99.90
19058;DHT22;9662;53.612;9.914;2022-09-09T14:48:55;19.70;99.90
19058;DHT22;9662;53.612;9.914;2022-09-09T14:51:24;19.60;99.90
19058;DHT22;9662;53.612;9.914;2022-09-09T14:53:55;19.50;99.90
19058;DHT22;9662;53.612;9.914;2022-09-09T14:56:24;19.50;99.90
19058;DHT22;9662;53.612;9.914;2022-09-09T14:58:53;19.80;99.90
19058;DHT22;9662;53.612;9.914;2022-09-09T15:01:21;19.80;99.90
19058;DHT22;9662;53.612;9.914;2022-09-09T15:03:50;20.00;99.90
19058;DHT22;9662;53.612;9.914;2022-09-09T15:06:18;19.80;99.90
19058;DHT22;9662;53.612;9.914;2022-09-09T15:08:46;19.60;99.90
19058;DHT22;9662;53.612;9.914;2022-09-09T15:11:15;19.40;99.90
19058;DHT22;9662;53.612;9.914;2022-09-09T15:13:43;19.60;99.90
19058;DHT22;9662;53.612;9.914;2022-09-09T15:16:11;19.60;99.90
19058;DHT22;9662;53.612;9.914;2022-09-09T15:18:39;19.90;99.90
19058;DHT22;9662;53.612;9.914;2022-09-09T15:21:08;20.00;99.90
19058;DHT22;9662;53.612;9.914;2022-09-09T15:23:35;20.00;99.90
19058;DHT22;9662;53.612;9.914;2022-09-09T15:26:03;20.00;99.90
19058;DHT22;9662;53.612;9.914;2022-09-09T15:28:33;19.90;99.90
19058;DHT22;9662;53.612;9.914;2022-09-09T15:31:06;20.00;99.90
19058;DHT22;9662;53.612;9.914;2022-09-09T15:33:33;20.00;99.90
19058;DHT22;9662;53.612;9.914;2022-09-09T15:36:12;20.00;99.90
19058;DHT22;9662;53.612;9.914;2022-09-09T15:38:39;19.90;99.90
19058;DHT22;9662;53.612;9.914;2022-09-09T15:41:06;20.00;99.90
19058;DHT22;9662;53.612;9.914;2022-09-09T15:43:34;20.00;99.90
19058;DHT22;9662;53.612;9.914;2022-09-09T15:46:13;20.20;99.90
19058;DHT22;9662;53.612;9.914;2022-09-09T15:48:48;20.30;99.90
19058;DHT22;9662;53.612;9.914;2022-09-09T15:51:16;20.40;99.90
19058;DHT22;9662;53.612;9.914;2022-09-09T15:53:44;20.30;99.90
19058;DHT22;9662;53.612;9.914;2022-09-09T15:56:11;20.30;99.90
19058;DHT22;9662;53.612;9.914;2022-09-09T15:58:39;20.30;99.90
19058;DHT22;9662;53.612;9.914;2022-09-09T16:01:07;20.40;99.90
19058;DHT22;9662;53.612;9.914;2022-09-09T16:03:34;20.30;99.90
19058;DHT22;9662;53.612;9.914;2022-09-09T16:06:01;20.40;99.90